createdAt,value
2023-05-21T00:00:57.484Z,14.33
2023-05-21T00:03:28.616Z,14.13
2023-05-21T00:05:58.728Z,13.74
2023-05-21T00:08:28.703Z,13.41
2023-05-21T00:10:58.265Z,13.23
2023-05-21T00:13:27.994Z,13.15
2023-05-21T00:15:58.872Z,13.03
2023-05-21T00:18:28.652Z,12.78
2023-05-21T00:20:58.662Z,12.28
2023-05-21T00:23:28.556Z,12.50
2023-05-21T00:25:58.085Z,13.09
2023-05-21T00:28:27.658Z,13.40
2023-05-21T00:30:58.657Z,13.18
2023-05-21T00:33:29.277Z,13.58
2023-05-21T00:35:58.778Z,13.47
2023-05-21T00:38:28.290Z,13.35
2023-05-21T00:40:58.326Z,12.70
2023-05-21T00:43:27.864Z,12.58
2023-05-21T00:45:59.547Z,12.46
2023-05-21T00:48:29.584Z,12.59
2023-05-21T00:50:59.085Z,12.63
2023-05-21T00:53:30.421Z,12.30
2023-05-21T00:56:00.114Z,12.29
2023-05-21T00:58:30.044Z,12.34
2023-05-21T01:01:04.353Z,12.46
2023-05-21T01:03:38.835Z,12.22
2023-05-21T01:06:11.243Z,12.25
2023-05-21T01:08:42.394Z,12.20
2023-05-21T01:11:12.865Z,12.36
2023-05-21T01:13:43.688Z,12.39
2023-05-21T01:16:15.091Z,12.40
2023-05-21T01:18:45.465Z,12.14
2023-05-21T01:21:17.703Z,11.91
2023-05-21T01:23:49.192Z,11.80
2023-05-21T01:26:18.826Z,11.67
2023-05-21T01:28:48.401Z,11.85
2023-05-21T01:31:28.076Z,12.17
2023-05-21T01:34:03.112Z,12.05
2023-05-21T01:36:36.299Z,11.67
2023-05-21T01:39:11.357Z,11.80
2023-05-21T01:41:45.264Z,12.02
2023-05-21T01:44:16.458Z,11.79
2023-05-21T01:46:46.164Z,12.01
2023-05-21T01:49:17.445Z,12.08
2023-05-21T01:51:47.627Z,12.14
2023-05-21T01:54:18.592Z,12.14
2023-05-21T01:56:48.127Z,12.06
2023-05-21T01:59:18.709Z,12.08
2023-05-21T02:01:48.466Z,12.16
2023-05-21T02:04:18.098Z,12.18
2023-05-21T02:06:47.708Z,12.33
2023-05-21T02:09:18.828Z,12.44
2023-05-21T02:11:48.402Z,12.24
2023-05-21T02:14:18.473Z,12.13
2023-05-21T02:16:47.995Z,12.16
2023-05-21T02:19:17.635Z,12.40
2023-05-21T02:21:47.194Z,12.25
2023-05-21T02:24:18.239Z,12.14
2023-05-21T02:26:48.751Z,12.12
2023-05-21T02:29:18.385Z,12.29
2023-05-21T02:31:47.899Z,11.97
2023-05-21T02:34:17.943Z,11.13
2023-05-21T02:36:52.949Z,11.32
2023-05-21T02:39:23.881Z,11.54
2023-05-21T02:41:53.659Z,11.61
2023-05-21T02:44:24.315Z,11.83
2023-05-21T02:46:53.898Z,11.93
2023-05-21T02:49:23.541Z,12.01
2023-05-21T02:51:53.278Z,11.97
2023-05-21T02:54:24.441Z,12.04
2023-05-21T02:56:54.208Z,11.97
2023-05-21T02:59:23.884Z,12.08
2023-05-21T03:01:53.814Z,12.14
2023-05-21T03:04:23.465Z,12.12
2023-05-21T03:06:55.147Z,12.09
2023-05-21T03:09:26.274Z,12.22
2023-05-21T03:11:57.885Z,12.25
2023-05-21T03:14:29.225Z,12.33
2023-05-21T03:16:58.839Z,12.28
2023-05-21T03:19:30.801Z,12.29
2023-05-21T03:22:00.917Z,12.35
2023-05-21T03:24:33.623Z,12.43
2023-05-21T03:27:06.769Z,12.74
2023-05-21T03:29:36.851Z,12.84
2023-05-21T03:32:08.710Z,12.97
2023-05-21T03:34:38.898Z,13.16
2023-05-21T03:37:09.749Z,12.84
2023-05-21T03:39:41.525Z,12.93
2023-05-21T03:42:11.607Z,12.94
2023-05-21T03:44:52.152Z,13.11
2023-05-21T03:47:44.898Z,13.60
2023-05-21T03:50:14.963Z,13.78
2023-05-21T03:52:44.578Z,14.16
2023-05-21T03:55:16.568Z,14.38
2023-05-21T03:57:46.502Z,14.43
2023-05-21T04:00:16.973Z,14.26
2023-05-21T04:02:47.241Z,13.94
2023-05-21T04:05:19.560Z,13.61
2023-05-21T04:07:50.361Z,13.67
2023-05-21T04:10:22.403Z,13.56
2023-05-21T04:12:53.166Z,13.20
2023-05-21T04:15:23.152Z,13.72
2023-05-21T04:17:53.682Z,13.65
2023-05-21T04:20:23.339Z,13.09
2023-05-21T04:22:53.197Z,12.71
2023-05-21T04:25:27.092Z,13.01
2023-05-21T04:27:57.330Z,13.36
2023-05-21T04:30:31.258Z,13.21
2023-05-21T04:33:02.488Z,13.41
2023-05-21T04:35:32.418Z,13.59
2023-05-21T04:38:04.109Z,13.95
2023-05-21T04:40:36.652Z,14.06
2023-05-21T04:43:06.895Z,14.13
2023-05-21T04:45:36.921Z,14.21
2023-05-21T04:48:08.167Z,14.16
2023-05-21T04:50:38.076Z,13.55
2023-05-21T04:53:08.095Z,13.92
2023-05-21T04:55:40.376Z,14.66
2023-05-21T04:58:11.350Z,14.75
2023-05-21T05:00:42.585Z,14.68
2023-05-21T05:03:12.701Z,15.06
2023-05-21T05:05:42.356Z,15.20
2023-05-21T05:08:14.736Z,15.56
2023-05-21T05:10:47.227Z,15.96
2023-05-21T05:13:18.746Z,15.93
2023-05-21T05:15:50.214Z,15.99
2023-05-21T05:18:24.572Z,16.02
2023-05-21T05:20:59.459Z,16.07
2023-05-21T05:23:29.627Z,16.09
2023-05-21T05:26:01.406Z,16.41
2023-05-21T05:28:31.577Z,16.53
2023-05-21T05:31:02.461Z,16.67
2023-05-21T05:33:32.414Z,16.50
2023-05-21T05:36:02.194Z,16.45
2023-05-21T05:38:31.834Z,16.61
2023-05-21T05:41:03.287Z,16.78
2023-05-21T05:43:32.912Z,16.56
2023-05-21T05:46:03.692Z,16.61
2023-05-21T05:48:33.584Z,16.81
2023-05-21T05:51:04.607Z,16.98
2023-05-21T05:53:34.973Z,17.07
2023-05-21T05:56:08.421Z,16.96
2023-05-21T05:58:39.650Z,16.79
2023-05-21T06:01:14.897Z,16.84
2023-05-21T06:03:46.506Z,16.90
2023-05-21T06:06:21.614Z,16.88
2023-05-21T06:08:52.237Z,16.95
2023-05-21T06:11:25.282Z,16.95
2023-05-21T06:13:55.823Z,17.15
2023-05-21T06:16:25.902Z,17.34
2023-05-21T06:18:56.614Z,17.53
2023-05-21T06:21:27.294Z,17.63
2023-05-21T06:23:57.123Z,17.67
2023-05-21T06:26:28.285Z,17.74
2023-05-21T06:28:59.157Z,17.74
2023-05-21T06:31:29.003Z,17.83
2023-05-21T06:33:58.891Z,17.80
2023-05-21T06:36:33.128Z,18.01
2023-05-21T06:39:03.748Z,17.97
2023-05-21T06:41:36.850Z,18.03
2023-05-21T06:44:26.585Z,18.08
2023-05-21T06:47:19.390Z,18.03
2023-05-21T06:49:49.664Z,17.99
2023-05-21T06:52:19.550Z,18.01
2023-05-21T06:54:49.588Z,18.02
2023-05-21T06:57:20.704Z,18.21
2023-05-21T06:59:50.337Z,18.25
2023-05-21T07:02:20.242Z,18.41
2023-05-21T07:04:50.676Z,18.39
2023-05-21T07:07:20.931Z,18.60
2023-05-21T07:09:51.826Z,18.78
2023-05-21T07:12:26.449Z,18.82
2023-05-21T07:14:57.573Z,19.20
2023-05-21T07:17:29.283Z,19.45
2023-05-21T07:20:00.278Z,19.56
2023-05-21T07:22:32.112Z,19.80
2023-05-21T07:25:03.002Z,19.44
2023-05-21T07:27:34.369Z,19.63
2023-05-21T07:30:07.479Z,19.35
2023-05-21T07:32:39.076Z,19.21
2023-05-21T07:35:09.660Z,19.41
2023-05-21T07:37:39.220Z,19.53
2023-05-21T07:40:10.427Z,19.28
2023-05-21T07:42:42.120Z,18.81
2023-05-21T07:45:14.849Z,18.83
2023-05-21T07:47:48.387Z,19.02
2023-05-21T07:50:19.208Z,19.04
2023-05-21T07:52:48.898Z,19.00
2023-05-21T07:55:18.854Z,19.12
2023-05-21T07:57:52.749Z,18.97
2023-05-21T08:00:31.814Z,19.05
2023-05-21T08:03:07.785Z,19.08
2023-05-21T08:05:38.432Z,19.10
2023-05-21T08:08:08.794Z,19.27
2023-05-21T08:10:40.169Z,19.29
2023-05-21T08:13:12.299Z,19.97
2023-05-21T08:15:43.911Z,20.13
2023-05-21T08:18:15.162Z,21.02
2023-05-21T08:20:46.728Z,21.03
2023-05-21T08:23:16.576Z,21.48
2023-05-21T08:25:54.222Z,20.56
2023-05-21T08:28:27.457Z,20.03
2023-05-21T08:30:57.400Z,19.71
2023-05-21T08:33:27.645Z,20.17
2023-05-21T08:35:57.306Z,20.45
2023-05-21T08:38:32.209Z,21.07
2023-05-21T08:41:10.622Z,21.14
2023-05-21T08:44:06.234Z,20.53
2023-05-21T08:46:40.126Z,20.40
2023-05-21T08:49:16.163Z,20.77
2023-05-21T08:51:46.887Z,21.17
2023-05-21T08:54:17.067Z,21.24
2023-05-21T08:56:49.848Z,21.57
2023-05-21T08:59:23.797Z,21.86
2023-05-21T09:01:55.506Z,22.69
2023-05-21T09:04:31.832Z,22.51
2023-05-21T09:07:03.681Z,22.87
2023-05-21T09:09:58.188Z,23.72
2023-05-21T09:12:30.327Z,23.69
2023-05-21T09:15:09.757Z,23.34
2023-05-21T09:17:42.304Z,23.36
2023-05-21T09:20:31.744Z,23.53
2023-05-21T09:23:06.551Z,23.39
2023-05-21T09:25:42.455Z,23.29
2023-05-21T09:28:19.067Z,23.05
2023-05-21T09:30:55.652Z,23.05
2023-05-21T09:33:34.079Z,23.10
2023-05-21T09:36:09.881Z,23.05
2023-05-21T09:38:40.683Z,22.49
2023-05-21T09:41:11.584Z,22.34
2023-05-21T09:43:44.508Z,22.30
2023-05-21T09:46:22.425Z,22.51
2023-05-21T09:48:52.836Z,22.51
2023-05-21T09:51:23.633Z,22.53
2023-05-21T09:53:55.685Z,22.46
2023-05-21T09:56:26.774Z,22.02
2023-05-21T09:58:57.140Z,22.19
2023-05-21T10:01:28.964Z,22.33
2023-05-21T10:04:01.239Z,22.53
2023-05-21T10:06:33.943Z,22.59
2023-05-21T10:09:08.299Z,22.78
2023-05-21T10:11:39.811Z,23.54
2023-05-21T10:14:15.732Z,23.55
2023-05-21T10:16:49.962Z,23.15
2023-05-21T10:19:21.782Z,23.58
2023-05-21T10:21:54.367Z,23.26
2023-05-21T10:24:27.050Z,23.86
2023-05-21T10:26:57.670Z,24.02
2023-05-21T10:29:28.851Z,23.76
2023-05-21T10:32:08.693Z,23.76
2023-05-21T10:35:01.813Z,23.37
2023-05-21T10:38:20.556Z,23.05
2023-05-21T10:41:36.292Z,22.74
2023-05-21T10:44:38.303Z,24.41
2023-05-21T10:48:10.434Z,24.47
2023-05-21T10:52:02.183Z,23.12
2023-05-21T10:55:29.580Z,22.83
2023-05-21T10:59:05.532Z,23.18
2023-05-21T11:02:25.010Z,24.55
2023-05-21T11:06:12.061Z,24.36
2023-05-21T11:09:14.201Z,23.53
2023-05-21T11:12:19.048Z,22.74
2023-05-21T11:15:24.414Z,22.41
2023-05-21T11:18:27.460Z,22.31
2023-05-21T11:21:31.031Z,22.46
2023-05-21T11:24:12.286Z,23.04
2023-05-21T11:27:09.007Z,24.49
2023-05-21T11:30:13.003Z,25.23
2023-05-21T11:33:37.581Z,25.74
2023-05-21T11:36:34.048Z,25.26
2023-05-21T11:39:35.183Z,25.71
2023-05-21T11:42:49.993Z,26.46
2023-05-21T11:46:13.181Z,26.37
2023-05-21T11:49:00.977Z,26.57
2023-05-21T11:52:19.607Z,26.20
2023-05-21T11:55:49.976Z,26.50
2023-05-21T11:59:06.008Z,26.34
2023-05-21T12:01:37.180Z,27.22
2023-05-21T12:04:09.037Z,27.70
2023-05-21T12:06:44.674Z,28.13
2023-05-21T12:09:16.590Z,28.20
2023-05-21T12:11:47.463Z,28.15
2023-05-21T12:14:22.353Z,27.91
2023-05-21T12:16:57.108Z,28.01
2023-05-21T12:19:28.068Z,28.02
2023-05-21T12:22:04.853Z,27.03
2023-05-21T12:24:38.482Z,26.38
2023-05-21T12:27:11.387Z,26.16
2023-05-21T12:29:53.105Z,25.63
2023-05-21T12:32:24.594Z,25.34
2023-05-21T12:34:56.678Z,24.72
2023-05-21T12:37:31.909Z,25.21
2023-05-21T12:40:02.759Z,26.73
2023-05-21T12:42:35.397Z,27.46
2023-05-21T12:45:10.173Z,26.42
2023-05-21T12:47:40.922Z,25.77
2023-05-21T12:50:14.328Z,25.07
2023-05-21T12:52:46.857Z,24.23
2023-05-21T12:55:18.926Z,24.02
2023-05-21T12:57:49.585Z,23.97
2023-05-21T13:00:25.665Z,23.87
2023-05-21T13:02:56.861Z,23.73
2023-05-21T13:05:27.746Z,23.86
2023-05-21T13:07:59.940Z,24.15
2023-05-21T13:10:29.958Z,24.95
2023-05-21T13:12:59.834Z,24.65
2023-05-21T13:15:30.371Z,24.26
2023-05-21T13:18:01.787Z,24.49
2023-05-21T13:20:32.221Z,24.25
2023-05-21T13:23:06.254Z,24.04
2023-05-21T13:25:36.871Z,23.84
2023-05-21T13:28:09.089Z,23.54
2023-05-21T13:30:39.882Z,23.04
2023-05-21T13:33:10.102Z,22.97
2023-05-21T13:35:39.852Z,23.08
2023-05-21T13:38:11.040Z,23.23
2023-05-21T13:40:41.001Z,23.15
2023-05-21T13:43:15.103Z,23.10
2023-05-21T13:45:45.401Z,23.29
2023-05-21T13:48:16.400Z,23.55
2023-05-21T13:50:48.465Z,23.51
2023-05-21T13:53:28.671Z,23.58
2023-05-21T13:56:01.037Z,23.92
2023-05-21T13:58:34.750Z,24.54
2023-05-21T14:01:08.523Z,24.32
2023-05-21T14:03:52.793Z,23.45
2023-05-21T14:06:28.358Z,23.39
2023-05-21T14:09:04.856Z,23.33
2023-05-21T14:11:37.138Z,22.68
2023-05-21T14:14:19.559Z,22.18
2023-05-21T14:16:54.658Z,21.65
2023-05-21T14:19:25.592Z,21.47
2023-05-21T14:21:55.940Z,21.27
2023-05-21T14:24:27.299Z,20.86
2023-05-21T14:26:57.302Z,20.91
2023-05-21T14:29:27.688Z,20.73
2023-05-21T14:32:00.091Z,20.21
2023-05-21T14:34:32.248Z,20.14
2023-05-21T14:37:04.547Z,19.86
2023-05-21T14:39:44.224Z,19.87
2023-05-21T14:42:14.961Z,19.53
2023-05-21T14:44:55.104Z,19.71
2023-05-21T14:47:25.900Z,19.24
2023-05-21T14:50:02.584Z,19.42
2023-05-21T14:52:32.798Z,19.31
2023-05-21T14:55:13.964Z,19.41
2023-05-21T15:02:08.750Z,19.76
2023-05-21T15:04:40.115Z,19.75
2023-05-21T15:07:09.897Z,19.33
2023-05-21T15:09:40.013Z,19.32
2023-05-21T15:12:13.710Z,19.55
2023-05-21T15:14:50.313Z,19.65
2023-05-21T15:18:07.830Z,19.59
2023-05-21T15:21:58.710Z,19.63
2023-05-21T15:24:34.626Z,19.37
2023-05-21T15:27:07.103Z,19.66
2023-05-21T15:29:47.179Z,20.05
2023-05-21T15:32:18.245Z,20.46
2023-05-21T15:34:50.922Z,20.53
2023-05-21T15:38:12.293Z,20.66
2023-05-21T15:40:54.705Z,19.59
2023-05-21T15:43:29.849Z,19.64
2023-05-21T15:46:31.213Z,19.54
2023-05-21T15:49:11.684Z,19.57
2023-05-21T15:52:20.457Z,19.95
2023-05-21T15:55:05.106Z,20.04
2023-05-21T15:57:35.247Z,19.83
2023-05-21T16:00:17.275Z,20.11
2023-05-21T16:02:54.066Z,19.98
2023-05-21T16:05:24.067Z,19.97
2023-05-21T16:08:05.679Z,19.57
2023-05-21T16:10:37.908Z,19.54
2023-05-21T16:13:07.612Z,19.57
2023-05-21T16:15:37.497Z,19.54
2023-05-21T16:18:10.182Z,19.71
2023-05-21T16:20:44.707Z,19.68
2023-05-21T16:23:15.539Z,19.70
2023-05-21T16:25:45.502Z,19.74
2023-05-21T16:28:15.334Z,19.85
2023-05-21T16:30:46.082Z,19.75
2023-05-21T16:33:26.807Z,19.70
2023-05-21T16:35:59.464Z,19.70
2023-05-21T16:38:45.214Z,19.80
2023-05-21T16:41:18.801Z,19.82
2023-05-21T16:43:50.408Z,19.72
2023-05-21T16:46:20.400Z,19.55
2023-05-21T16:48:53.945Z,19.35
2023-05-21T16:51:29.021Z,19.32
2023-05-21T16:54:05.010Z,19.33
2023-05-21T16:56:41.978Z,19.54
2023-05-21T16:59:12.959Z,19.64
2023-05-21T17:01:42.889Z,19.31
2023-05-21T17:04:15.603Z,19.28
2023-05-21T17:06:45.266Z,19.50
2023-05-21T17:09:18.061Z,19.43
2023-05-21T17:11:57.811Z,19.33
2023-05-21T17:17:04.051Z,19.29
2023-05-21T17:19:42.073Z,19.37
2023-05-21T17:22:13.932Z,19.42
2023-05-21T17:24:44.236Z,19.41
2023-05-21T17:27:29.355Z,19.24
2023-05-21T17:30:02.094Z,19.38
2023-05-21T17:32:34.041Z,19.22
2023-05-21T17:35:08.603Z,19.18
2023-05-21T17:37:42.411Z,19.03
2023-05-21T17:40:14.978Z,19.01
2023-05-21T17:42:46.735Z,18.94
2023-05-21T17:45:20.654Z,18.80
2023-05-21T17:47:55.634Z,18.74
2023-05-21T17:50:29.704Z,18.82
2023-05-21T17:53:02.316Z,18.45
2023-05-21T17:55:32.433Z,18.40
2023-05-21T17:58:07.274Z,18.40
2023-05-21T18:00:38.733Z,18.35
2023-05-21T18:03:10.029Z,18.32
2023-05-21T18:05:45.940Z,18.54
2023-05-21T18:08:22.301Z,18.77
2023-05-21T18:14:51.029Z,18.94
2023-05-21T18:17:54.055Z,18.36
2023-05-21T18:20:28.591Z,17.68
2023-05-21T18:23:08.757Z,17.45
2023-05-21T18:25:57.746Z,17.40
2023-05-21T18:28:42.614Z,17.44
2023-05-21T18:31:18.594Z,17.32
2023-05-21T18:34:01.310Z,17.41
2023-05-21T18:36:38.890Z,17.08
2023-05-21T18:39:12.498Z,17.11
2023-05-21T18:41:45.523Z,17.00
2023-05-21T18:44:15.196Z,17.00
2023-05-21T18:46:46.177Z,16.76
2023-05-21T18:49:16.752Z,16.97
2023-05-21T18:51:47.295Z,17.03
2023-05-21T18:54:20.521Z,17.17
2023-05-21T18:56:52.919Z,16.99
2023-05-21T18:59:26.842Z,16.80
2023-05-21T19:01:56.838Z,16.90
2023-05-21T19:04:30.184Z,16.76
2023-05-21T19:07:05.782Z,16.79
2023-05-21T19:09:42.107Z,16.80
2023-05-21T19:12:12.644Z,16.79
2023-05-21T19:14:45.596Z,16.63
2023-05-21T19:17:15.955Z,16.52
2023-05-21T19:19:50.681Z,16.66
2023-05-21T19:22:48.129Z,16.59
2023-05-21T19:25:54.201Z,16.54
2023-05-21T19:28:29.282Z,16.43
2023-05-21T19:31:02.780Z,16.36
2023-05-21T19:33:32.723Z,16.31
2023-05-21T19:36:02.943Z,16.26
2023-05-21T19:38:37.416Z,16.07
2023-05-21T19:41:16.942Z,16.04
2023-05-21T19:44:04.175Z,16.31
2023-05-21T19:46:43.344Z,16.71
2023-05-21T19:53:56.280Z,16.01
2023-05-21T20:00:51.313Z,16.13
2023-05-21T20:03:22.630Z,16.19
2023-05-21T20:05:55.542Z,16.53
2023-05-21T20:08:32.850Z,16.58
2023-05-21T20:11:09.597Z,16.66
2023-05-21T20:13:52.936Z,16.15
2023-05-21T20:16:26.890Z,16.07
2023-05-21T20:18:58.326Z,15.97
2023-05-21T20:21:28.156Z,16.05
2023-05-21T20:23:57.812Z,16.04
2023-05-21T20:26:28.374Z,16.12
2023-05-21T20:29:01.694Z,15.98
2023-05-21T20:31:33.093Z,16.09
2023-05-21T20:34:07.969Z,15.28
2023-05-21T20:36:40.591Z,15.49
2023-05-21T20:39:12.628Z,15.44
2023-05-21T20:41:46.547Z,15.69
2023-05-21T20:44:17.490Z,15.89
2023-05-21T20:46:49.457Z,15.78
2023-05-21T20:49:19.312Z,15.81
2023-05-21T20:51:49.046Z,15.69
2023-05-21T20:54:18.740Z,15.91
2023-05-21T20:56:51.016Z,15.86
2023-05-21T20:59:20.827Z,15.99
2023-05-21T21:01:52.850Z,16.11
2023-05-21T21:04:24.862Z,15.84
2023-05-21T21:06:55.598Z,15.57
2023-05-21T21:09:28.649Z,14.65
2023-05-21T21:12:06.086Z,14.44
2023-05-21T21:14:44.124Z,14.40
2023-05-21T21:17:15.527Z,14.29
2023-05-21T21:19:45.146Z,14.41
2023-05-21T21:22:16.085Z,14.71
2023-05-21T21:24:46.207Z,14.50
2023-05-21T21:27:16.665Z,14.63
2023-05-21T21:29:47.094Z,14.79
2023-05-21T21:32:18.219Z,14.48
2023-05-21T21:34:48.187Z,14.74
2023-05-21T21:37:18.238Z,14.46
2023-05-21T21:39:48.256Z,14.63
2023-05-21T21:42:20.672Z,14.68
2023-05-21T21:44:50.619Z,14.35
2023-05-21T21:47:22.380Z,14.22
2023-05-21T21:49:52.010Z,14.36
2023-05-21T21:52:21.647Z,14.16
2023-05-21T21:54:52.040Z,14.44
2023-05-21T21:57:21.647Z,14.44
2023-05-21T21:59:51.881Z,14.11
2023-05-21T22:02:23.572Z,14.25
2023-05-21T22:04:53.287Z,14.67
2023-05-21T22:07:22.932Z,15.02
2023-05-21T22:09:52.491Z,15.40
2023-05-21T22:12:22.866Z,15.31
2023-05-21T22:14:56.461Z,15.35
2023-05-21T22:17:29.017Z,15.29
2023-05-21T22:19:58.829Z,15.56
2023-05-21T22:22:28.551Z,15.47
2023-05-21T22:25:00.762Z,15.18
2023-05-21T22:27:33.153Z,15.28
2023-05-21T22:30:05.661Z,15.06
2023-05-21T22:32:41.258Z,15.02
2023-05-21T22:35:14.352Z,14.48
2023-05-21T22:37:46.498Z,14.52
2023-05-21T22:40:19.549Z,14.56
2023-05-21T22:42:52.600Z,14.49
2023-05-21T22:45:24.825Z,14.77
2023-05-21T22:48:08.528Z,14.74
2023-05-21T22:50:41.094Z,14.94
2023-05-21T22:53:14.031Z,14.94
2023-05-21T22:55:46.755Z,15.04
2023-05-21T22:58:17.011Z,15.08
2023-05-21T23:00:48.404Z,14.69
2023-05-21T23:03:19.796Z,14.25
2023-05-21T23:05:50.178Z,14.47
2023-05-21T23:08:19.819Z,14.68
2023-05-21T23:10:49.509Z,14.86
2023-05-21T23:13:19.294Z,14.85
2023-05-21T23:15:50.972Z,15.22
2023-05-21T23:18:22.102Z,15.49
2023-05-21T23:20:52.270Z,15.21
2023-05-21T23:23:21.954Z,14.13
2023-05-21T23:25:55.119Z,14.04
2023-05-21T23:28:25.872Z,14.25
2023-05-21T23:30:55.441Z,14.17
2023-05-21T23:33:28.849Z,13.09
2023-05-21T23:35:59.081Z,13.43
2023-05-21T23:38:28.630Z,13.90
2023-05-21T23:40:58.418Z,13.73
2023-05-21T23:43:29.850Z,13.25
2023-05-21T23:46:03.741Z,13.55
2023-05-21T23:48:34.850Z,13.87
2023-05-21T23:51:04.834Z,14.19
2023-05-21T23:53:34.337Z,14.23
2023-05-21T23:56:04.095Z,14.27
2023-05-21T23:58:33.743Z,14.18
